Time;durP1;ratioP1;P1;durP2;ratioP2;P2;SDS_P1;SDS_P2;PMS_P1;PMS_P2;Temp;Humidity;BMP_temperature;BMP_pressure;BME280_temperature;BME280_humidity;BME280_pressure;Samples;Min_cycle;Max_cycle;Signal;HPM_P1;HPM_P2
2022/10/09 00:00:48;;;;;;;10.10;7.43;;;11.20;76.00;;;;;;5056514;28;20602;-73
2022/10/09 00:03:16;;;;;;;7.20;4.80;;;11.20;76.30;;;;;;5059770;28;20491;-73
2022/10/09 00:05:44;;;;;;;5.57;5.03;;;11.10;76.10;;;;;;5058970;28;20463;-73
2022/10/09 00:08:11;;;;;;;6.70;4.00;;;11.10;76.10;;;;;;5056556;28;20891;-73
2022/10/09 00:10:41;;;;;;;4.60;4.13;;;11.10;76.00;;;;;;5056159;28;20988;-74
2022/10/09 00:13:09;;;;;;;8.37;4.10;;;11.00;76.10;;;;;;5056338;28;20812;-74
2022/10/09 00:15:39;;;;;;;6.17;4.30;;;11.00;76.30;;;;;;5055993;28;20832;-74
2022/10/09 00:18:07;;;;;;;4.97;3.40;;;11.00;76.50;;;;;;5056267;28;20530;-74
2022/10/09 00:20:37;;;;;;;7.50;3.70;;;11.00;76.50;;;;;;5055925;28;20494;-74
2022/10/09 00:23:05;;;;;;;6.93;3.80;;;10.90;76.40;;;;;;5055604;28;20461;-73
2022/10/09 00:25:32;;;;;;;4.57;3.67;;;10.90;76.40;;;;;;5055938;28;20457;-73
2022/10/09 00:27:59;;;;;;;7.20;4.00;;;10.90;76.30;;;;;;5055805;28;20451;-73
2022/10/09 00:30:26;;;;;;;7.43;3.27;;;10.90;76.40;;;;;;5055675;28;20470;-73
2022/10/09 00:32:53;;;;;;;7.20;3.20;;;10.90;76.40;;;;;;5055788;28;20459;-73
2022/10/09 00:35:22;;;;;;;7.90;3.80;;;10.90;76.50;;;;;;5055546;28;20938;-74
2022/10/09 00:37:49;;;;;;;6.53;3.80;;;10.80;76.30;;;;;;5055573;28;20455;-73
2022/10/09 00:40:16;;;;;;;16.63;3.90;;;10.80;76.30;;;;;;5055436;28;20499;-74
2022/10/09 00:42:44;;;;;;;5.80;3.23;;;10.80;76.60;;;;;;5055173;28;20453;-73
2022/10/09 00:45:19;;;;;;;6.10;3.57;;;10.80;76.70;;;;;;5055596;28;20473;-73
2022/10/09 00:47:48;;;;;;;6.60;3.30;;;10.80;76.70;;;;;;5055271;28;20448;-74
2022/10/09 00:50:19;;;;;;;5.73;3.63;;;10.80;76.70;;;;;;5055331;28;20478;-74
2022/10/09 00:52:52;;;;;;;9.03;3.30;;;10.80;76.90;;;;;;5055273;28;20448;-74
2022/10/09 00:55:19;;;;;;;10.60;3.73;;;10.80;77.10;;;;;;5055493;28;20436;-74
2022/10/09 00:57:46;;;;;;;8.30;4.13;;;10.70;77.00;;;;;;5055148;28;20454;-73
2022/10/09 01:00:14;;;;;;;8.07;3.73;;;10.70;77.20;;;;;;5054835;28;21018;-74
2022/10/09 01:02:41;;;;;;;5.47;3.47;;;10.70;77.20;;;;;;5055293;28;20883;-74
2022/10/09 01:05:10;;;;;;;7.73;3.70;;;10.70;77.20;;;;;;5054834;28;20455;-74
2022/10/09 01:07:47;;;;;;;6.37;3.67;;;10.60;77.10;;;;;;5055240;28;20526;-73
2022/10/09 01:10:25;;;;;;;8.40;3.27;;;10.60;77.10;;;;;;5054831;28;20491;-73
2022/10/09 01:13:01;;;;;;;13.83;3.10;;;10.60;77.30;;;;;;5054824;28;20437;-74
2022/10/09 01:15:33;;;;;;;6.40;3.60;;;10.60;77.30;;;;;;5055540;28;20507;-73
2022/10/09 01:18:06;;;;;;;6.67;3.23;;;10.60;77.20;;;;;;5053623;28;20441;-73
2022/10/09 01:20:41;;;;;;;7.20;3.23;;;10.50;77.20;;;;;;5056880;28;20489;-73
2022/10/09 01:23:47;;;;;;;5.17;3.30;;;10.50;77.40;;;;;;5056357;28;20911;-73
2022/10/09 01:26:37;;;;;;;10.73;3.80;;;10.50;77.60;;;;;;5033595;28;20450;-73
2022/10/09 01:29:08;;;;;;;7.00;3.27;;;10.50;78.00;;;;;;5054689;28;20494;-73
2022/10/09 01:31:40;;;;;;;10.57;3.77;;;10.50;77.80;;;;;;5054666;28;20795;-74
2022/10/09 01:34:07;;;;;;;5.13;2.90;;;10.50;77.90;;;;;;5054798;28;20430;-74
2022/10/09 01:36:36;;;;;;;5.77;3.53;;;10.50;78.10;;;;;;5054636;28;20446;-73
2022/10/09 01:39:05;;;;;;;6.50;4.30;;;10.40;78.00;;;;;;5054317;28;20472;-73
2022/10/09 01:41:32;;;;;;;5.03;3.33;;;10.40;78.10;;;;;;5054220;28;20487;-73
2022/10/09 01:43:59;;;;;;;7.10;4.43;;;10.40;78.00;;;;;;5054954;28;20460;-74
2022/10/09 01:46:29;;;;;;;6.57;4.47;;;10.40;78.90;;;;;;5054288;28;20938;-74
2022/10/09 01:49:06;;;;;;;9.80;3.40;;;10.40;78.10;;;;;;5054220;28;20456;-74
2022/10/09 01:51:40;;;;;;;6.80;3.70;;;10.40;78.20;;;;;;5054312;28;20434;-74
2022/10/09 01:54:09;;;;;;;7.40;3.80;;;10.40;78.20;;;;;;5052932;28;20790;-74
2022/10/09 01:56:38;;;;;;;7.40;3.70;;;10.30;78.20;;;;;;5054248;28;20823;-74
2022/10/09 01:59:11;;;;;;;5.47;3.50;;;10.30;78.40;;;;;;5054103;28;20473;-74
2022/10/09 02:01:41;;;;;;;4.90;3.97;;;10.30;78.60;;;;;;5053757;28;20990;-74
2022/10/09 02:04:10;;;;;;;6.47;4.20;;;10.30;78.60;;;;;;5053937;28;20456;-73
2022/10/09 02:06:39;;;;;;;4.50;3.33;;;10.30;78.60;;;;;;5053950;28;20459;-73
2022/10/09 02:09:09;;;;;;;6.00;4.00;;;10.30;78.70;;;;;;5053899;28;20483;-73
2022/10/09 02:11:38;;;;;;;6.30;4.60;;;10.20;78.60;;;;;;5053521;28;20455;-73
2022/10/09 02:14:04;;;;;;;10.50;4.57;;;10.20;78.70;;;;;;5054039;28;20463;-73
2022/10/09 02:16:37;;;;;;;9.33;3.93;;;10.20;78.80;;;;;;5053780;28;20451;-73
2022/10/09 02:19:12;;;;;;;5.93;3.80;;;10.20;78.70;;;;;;5053752;28;20478;-73
2022/10/09 02:21:43;;;;;;;4.17;3.20;;;10.20;78.50;;;;;;5053679;28;20819;-73
2022/10/09 02:24:13;;;;;;;5.87;4.00;;;10.20;78.50;;;;;;5053658;28;20469;-73
2022/10/09 02:26:41;;;;;;;5.63;3.93;;;10.20;78.50;;;;;;5053734;28;20428;-74
2022/10/09 02:29:08;;;;;;;8.20;4.67;;;10.10;78.40;;;;;;5053168;28;20885;-74
2022/10/09 02:31:38;;;;;;;9.10;3.77;;;10.10;78.60;;;;;;5053416;28;20828;-74
2022/10/09 02:34:08;;;;;;;6.90;3.50;;;10.00;78.60;;;;;;5053310;28;21073;-73
2022/10/09 02:36:36;;;;;;;7.60;3.20;;;10.00;78.60;;;;;;5053537;28;20456;-74
2022/10/09 02:39:05;;;;;;;5.37;3.90;;;10.00;78.50;;;;;;5053609;28;20835;-73
2022/10/09 02:41:32;;;;;;;5.87;3.53;;;10.00;78.50;;;;;;5053660;28;20482;-74
2022/10/09 02:43:59;;;;;;;6.10;3.17;;;10.00;78.60;;;;;;5053353;28;20446;-74
2022/10/09 02:46:26;;;;;;;5.73;3.30;;;9.90;79.60;;;;;;5053122;28;20948;-74
2022/10/09 02:48:53;;;;;;;4.70;3.80;;;9.90;79.50;;;;;;5053757;28;20448;-73
2022/10/09 02:51:22;;;;;;;7.93;3.63;;;9.80;79.80;;;;;;5053556;28;20457;-73
2022/10/09 02:53:51;;;;;;;5.70;3.60;;;9.80;80.30;;;;;;5053833;28;20569;-73
2022/10/09 02:56:18;;;;;;;9.23;4.17;;;9.80;80.30;;;;;;5053503;28;20499;-72
2022/10/09 02:58:44;;;;;;;5.30;3.03;;;9.80;80.40;;;;;;5054548;28;20455;-73
2022/10/09 03:01:12;;;;;;;6.43;3.10;;;9.70;80.30;;;;;;5054731;28;20481;-73
2022/10/09 03:03:39;;;;;;;4.30;2.70;;;9.70;80.10;;;;;;5054462;28;20464;-73
2022/10/09 03:06:09;;;;;;;5.00;3.20;;;9.60;80.10;;;;;;5056702;28;20461;-72
2022/10/09 03:08:38;;;;;;;3.83;3.30;;;9.60;80.30;;;;;;5059242;28;20484;-73
2022/10/09 03:11:05;;;;;;;7.50;3.30;;;9.60;80.60;;;;;;5058222;28;20476;-74
2022/10/09 03:13:32;;;;;;;3.80;3.40;;;9.60;80.90;;;;;;5057879;28;20451;-74
2022/10/09 03:16:03;;;;;;;4.40;3.53;;;9.60;81.00;;;;;;5058332;28;20453;-73
2022/10/09 03:18:30;;;;;;;7.30;3.47;;;9.60;81.10;;;;;;5058542;28;20453;-73
2022/10/09 03:20:57;;;;;;;4.27;3.80;;;9.60;81.10;;;;;;5058788;28;20481;-73
2022/10/09 03:23:24;;;;;;;4.80;3.80;;;9.50;81.10;;;;;;5059140;28;20450;-73
2022/10/09 03:25:57;;;;;;;6.07;4.00;;;9.60;81.20;;;;;;5058125;28;20454;-72
2022/10/09 03:28:24;;;;;;;4.50;4.03;;;9.60;81.10;;;;;;5057860;28;20947;-72
2022/10/09 03:30:51;;;;;;;4.53;3.30;;;9.60;81.20;;;;;;5058212;28;20468;-73
2022/10/09 03:33:17;;;;;;;5.70;4.33;;;9.60;81.30;;;;;;5059326;28;20920;-73
2022/10/09 03:35:45;;;;;;;6.50;4.20;;;9.60;81.50;;;;;;5058873;28;20462;-73
2022/10/09 03:38:12;;;;;;;8.50;3.77;;;9.60;81.50;;;;;;5058806;28;20815;-72
2022/10/09 03:40:38;;;;;;;4.87;4.07;;;9.60;81.60;;;;;;5060073;28;20470;-72
2022/10/09 03:43:07;;;;;;;5.10;4.10;;;9.50;81.90;;;;;;5059961;28;20444;-73
2022/10/09 03:48:18;;;;;;;6.50;4.03;;;9.50;81.90;;;;;;5059165;28;20498;-71
2022/10/09 03:50:45;;;;;;;6.17;4.53;;;9.40;81.90;;;;;;5059042;28;20476;-70
2022/10/09 03:53:13;;;;;;;3.37;3.17;;;9.50;82.00;;;;;;5060489;28;20468;-72
2022/10/09 03:55:40;;;;;;;4.27;3.67;;;9.40;81.70;;;;;;5060469;28;20844;-72
2022/10/09 03:58:08;;;;;;;4.80;3.80;;;9.40;81.70;;;;;;5060793;28;20468;-72
2022/10/09 04:00:35;;;;;;;4.40;3.90;;;9.40;81.70;;;;;;5060013;28;20477;-72
2022/10/09 04:03:02;;;;;;;4.27;3.87;;;9.40;81.70;;;;;;5060428;28;20445;-73
2022/10/09 04:05:30;;;;;;;5.27;4.40;;;9.40;81.80;;;;;;5060756;28;20454;-73
2022/10/09 04:07:56;;;;;;;5.57;4.33;;;9.40;81.70;;;;;;5060535;28;20457;-73
2022/10/09 04:10:23;;;;;;;6.47;4.83;;;9.30;81.80;;;;;;5059752;28;20486;-73
2022/10/09 04:12:50;;;;;;;4.93;4.43;;;9.30;81.80;;;;;;5060218;28;20450;-73
2022/10/09 04:15:18;;;;;;;6.70;4.90;;;9.30;81.80;;;;;;5061019;28;20457;-73
2022/10/09 04:17:45;;;;;;;5.50;4.60;;;9.30;81.80;;;;;;5059382;28;20891;-72
2022/10/09 04:20:12;;;;;;;4.63;3.87;;;9.30;81.80;;;;;;5059565;28;20469;-72
2022/10/09 04:22:38;;;;;;;5.40;4.33;;;9.30;81.80;;;;;;5059874;28;20501;-72
2022/10/09 04:25:06;;;;;;;6.17;4.70;;;9.30;81.90;;;;;;5059898;28;20457;-73
2022/10/09 04:27:32;;;;;;;5.23;4.73;;;9.30;82.10;;;;;;5060067;28;20979;-72
2022/10/09 04:29:59;;;;;;;4.93;4.53;;;9.20;82.10;;;;;;5059730;28;20483;-72
2022/10/09 04:32:27;;;;;;;5.97;4.67;;;9.20;82.20;;;;;;5058458;28;20457;-72
2022/10/09 04:34:54;;;;;;;6.80;3.77;;;9.20;82.40;;;;;;5059278;28;20449;-72
2022/10/09 04:37:21;;;;;;;8.00;4.70;;;9.20;82.30;;;;;;5060369;28;20450;-72
2022/10/09 04:39:47;;;;;;;5.73;4.40;;;9.20;83.40;;;;;;5059715;28;20475;-72
2022/10/09 04:42:14;;;;;;;10.53;4.67;;;9.20;82.80;;;;;;5059260;28;20485;-73
2022/10/09 04:44:41;;;;;;;9.57;4.80;;;9.20;82.90;;;;;;5058738;28;20444;-73
2022/10/09 04:47:07;;;;;;;7.60;4.67;;;9.20;83.20;;;;;;5059793;28;20454;-72
2022/10/09 04:49:36;;;;;;;7.80;4.50;;;9.20;83.90;;;;;;5060115;28;20485;-72
2022/10/09 04:52:02;;;;;;;7.30;3.90;;;9.30;84.30;;;;;;5059513;28;20460;-72
2022/10/09 04:54:29;;;;;;;6.90;5.10;;;9.30;84.30;;;;;;5058804;28;20935;-72
2022/10/09 04:56:56;;;;;;;5.77;4.40;;;9.30;84.30;;;;;;5059069;28;20465;-72
2022/10/09 04:59:23;;;;;;;8.50;4.43;;;9.20;84.10;;;;;;5058776;28;20471;-72
2022/10/09 05:01:49;;;;;;;6.57;4.50;;;9.20;84.10;;;;;;5061131;28;20494;-72
2022/10/09 05:04:16;;;;;;;6.10;4.47;;;9.20;84.10;;;;;;5060067;28;20458;-72
2022/10/09 05:06:44;;;;;;;5.00;4.37;;;9.20;83.90;;;;;;5059975;28;20454;-72
2022/10/09 05:09:11;;;;;;;6.30;4.33;;;9.20;83.60;;;;;;5057860;28;21025;-72
2022/10/09 05:11:37;;;;;;;6.07;4.70;;;9.20;83.60;;;;;;5058047;28;20476;-72
2022/10/09 05:14:04;;;;;;;8.27;4.77;;;9.10;83.60;;;;;;5060157;28;20460;-72
2022/10/09 05:16:31;;;;;;;6.63;4.40;;;9.10;83.60;;;;;;5060244;28;20430;-72
2022/10/09 05:18:59;;;;;;;10.50;4.60;;;9.10;83.50;;;;;;5062617;28;20455;-73
2022/10/09 05:21:27;;;;;;;5.47;4.70;;;9.10;83.60;;;;;;5066050;28;20474;-73
2022/10/09 05:23:55;;;;;;;7.27;6.27;;;9.00;83.70;;;;;;5067076;28;20461;-73
2022/10/09 05:26:24;;;;;;;8.07;5.03;;;9.00;84.60;;;;;;5067032;28;20451;-72
2022/10/09 05:28:51;;;;;;;11.33;5.90;;;9.00;84.60;;;;;;5068584;28;20444;-73
2022/10/09 05:31:20;;;;;;;8.63;4.97;;;9.00;85.50;;;;;;5066413;28;20457;-72
2022/10/09 05:33:48;;;;;;;7.97;5.67;;;9.00;86.80;;;;;;5068418;28;20509;-72
2022/10/09 05:36:16;;;;;;;7.10;5.50;;;9.00;87.20;;;;;;5068598;28;20434;-73
2022/10/09 05:38:43;;;;;;;8.53;6.10;;;9.00;87.80;;;;;;5071572;28;20965;-73
2022/10/09 05:41:13;;;;;;;8.47;5.30;;;9.10;88.10;;;;;;5065640;28;20453;-73
2022/10/09 05:43:41;;;;;;;6.77;4.60;;;9.10;88.40;;;;;;5068838;28;20439;-73
2022/10/09 05:46:10;;;;;;;6.60;5.70;;;9.10;88.40;;;;;;5059383;28;20447;-72
2022/10/09 05:48:38;;;;;;;9.53;5.40;;;9.10;88.20;;;;;;5059394;28;20544;-71
2022/10/09 05:51:09;;;;;;;6.03;5.13;;;9.00;87.80;;;;;;5059701;28;20986;-71
2022/10/09 05:53:36;;;;;;;9.50;4.50;;;9.10;87.30;;;;;;5059046;28;20460;-71
2022/10/09 05:56:12;;;;;;;7.33;5.10;;;9.00;87.10;;;;;;5060896;28;20456;-71
2022/10/09 05:58:39;;;;;;;5.20;4.70;;;9.10;87.30;;;;;;5060435;28;20445;-72
2022/10/09 06:01:07;;;;;;;11.13;5.03;;;9.10;87.40;;;;;;5057993;28;20467;-72
2022/10/09 06:03:34;;;;;;;5.20;4.50;;;9.10;87.20;;;;;;5059672;28;20434;-73
2022/10/09 06:06:01;;;;;;;6.97;5.10;;;9.10;87.20;;;;;;5064013;28;20454;-72
2022/10/09 06:08:28;;;;;;;10.00;5.47;;;9.10;87.30;;;;;;5069894;28;20453;-72
2022/10/09 06:10:55;;;;;;;11.67;6.60;;;9.10;87.60;;;;;;5069567;28;20476;-72
2022/10/09 06:13:23;;;;;;;10.27;6.33;;;9.10;88.00;;;;;;5070211;28;20441;-72
2022/10/09 06:15:53;;;;;;;9.17;6.10;;;9.10;88.30;;;;;;5069999;28;20442;-73
2022/10/09 06:18:26;;;;;;;6.10;5.13;;;9.10;88.40;;;;;;5069926;28;20817;-72
2022/10/09 06:20:54;;;;;;;10.67;6.80;;;9.10;88.30;;;;;;5070755;28;20485;-72
2022/10/09 06:23:21;;;;;;;8.57;5.93;;;9.10;88.20;;;;;;5064389;28;20509;-72
2022/10/09 06:25:52;;;;;;;9.47;5.93;;;9.10;88.20;;;;;;5063978;28;20477;-72
2022/10/09 06:28:19;;;;;;;6.30;5.30;;;9.20;88.60;;;;;;5068049;28;20449;-72
2022/10/09 06:30:47;;;;;;;7.03;6.30;;;9.20;88.70;;;;;;5067807;28;20469;-71
2022/10/09 06:33:14;;;;;;;9.83;6.97;;;9.20;88.60;;;;;;5068732;28;20430;-71
2022/10/09 06:35:42;;;;;;;7.57;6.77;;;9.20;88.50;;;;;;5066111;28;20442;-70
2022/10/09 06:38:09;;;;;;;8.10;6.30;;;9.30;88.70;;;;;;5065172;28;20453;-71
2022/10/09 06:40:36;;;;;;;8.50;5.70;;;9.30;88.70;;;;;;5063473;28;20469;-70
2022/10/09 06:43:03;;;;;;;9.10;6.00;;;9.30;88.90;;;;;;5058704;28;20485;-73
2022/10/09 06:45:32;;;;;;;6.50;5.90;;;9.40;89.40;;;;;;5058283;28;20447;-78
2022/10/09 06:48:01;;;;;;;7.87;7.03;;;9.40;89.70;;;;;;5053442;28;20831;-71
2022/10/09 06:50:27;;;;;;;7.33;5.53;;;9.40;89.80;;;;;;5053596;28;20474;-71
2022/10/09 06:52:54;;;;;;;7.77;6.60;;;9.40;89.80;;;;;;5053507;28;20446;-71
2022/10/09 06:55:21;;;;;;;8.57;6.97;;;9.50;89.90;;;;;;5053920;28;20974;-69
2022/10/09 06:57:47;;;;;;;7.97;6.47;;;9.50;90.00;;;;;;5053316;28;20451;-71
2022/10/09 07:00:14;;;;;;;8.80;7.20;;;9.50;90.00;;;;;;5053503;28;20467;-72
2022/10/09 07:02:41;;;;;;;7.17;6.47;;;9.60;90.20;;;;;;5054288;28;20485;-69
2022/10/09 07:05:09;;;;;;;7.83;5.87;;;9.60;90.20;;;;;;5053485;28;20452;-71
2022/10/09 07:07:40;;;;;;;10.60;7.20;;;9.60;90.30;;;;;;5053423;28;20456;-72
2022/10/09 07:10:08;;;;;;;12.53;7.90;;;9.60;90.30;;;;;;5053539;28;20522;-70
2022/10/09 07:12:35;;;;;;;12.80;8.03;;;9.60;90.50;;;;;;5055532;28;20940;-71
2022/10/09 07:15:01;;;;;;;11.57;8.00;;;9.70;90.80;;;;;;5056741;28;20442;-71
2022/10/09 07:17:28;;;;;;;9.60;7.53;;;9.70;91.00;;;;;;5062539;28;20449;-71
2022/10/09 07:19:55;;;;;;;10.20;7.60;;;9.80;91.30;;;;;;5056275;28;20470;-71
2022/10/09 07:22:23;;;;;;;11.13;8.70;;;9.90;91.60;;;;;;5053310;28;20855;-76
2022/10/09 07:24:50;;;;;;;12.40;8.33;;;10.00;91.20;;;;;;5052937;28;20478;-76
2022/10/09 07:27:17;;;;;;;12.20;7.70;;;10.10;91.40;;;;;;5053227;28;20453;-76
2022/10/09 07:29:44;;;;;;;9.87;8.47;;;10.10;91.50;;;;;;5052862;28;20992;-76
2022/10/09 07:32:11;;;;;;;9.87;8.13;;;10.20;91.60;;;;;;5053185;28;20436;-75
2022/10/09 07:34:37;;;;;;;11.83;9.07;;;10.20;91.50;;;;;;5052862;28;20455;-76
2022/10/09 07:37:04;;;;;;;10.70;8.23;;;10.30;91.60;;;;;;5053050;28;20439;-76
2022/10/09 07:39:33;;;;;;;16.30;8.97;;;10.40;91.80;;;;;;5053081;28;20478;-76
2022/10/09 07:42:00;;;;;;;9.90;7.87;;;10.40;91.90;;;;;;5052889;28;20889;-76
2022/10/09 07:44:27;;;;;;;12.13;7.03;;;10.50;92.20;;;;;;5052988;28;20452;-76
2022/10/09 07:46:54;;;;;;;9.87;7.30;;;10.50;91.70;;;;;;5052964;28;20459;-76
2022/10/09 07:49:20;;;;;;;10.80;7.63;;;10.60;91.70;;;;;;5052604;28;20986;-75
2022/10/09 07:51:47;;;;;;;10.37;8.27;;;10.70;91.70;;;;;;5053022;28;20456;-76
2022/10/09 07:54:14;;;;;;;9.13;8.10;;;10.70;91.60;;;;;;5056587;28;20572;-75
2022/10/09 07:56:42;;;;;;;13.63;7.67;;;10.80;92.10;;;;;;5056147;28;20967;-77
2022/10/09 07:59:15;;;;;;;9.90;8.90;;;10.80;91.40;;;;;;5056428;28;20466;-77
2022/10/09 08:01:42;;;;;;;8.77;7.87;;;10.80;91.30;;;;;;5055961;28;20928;-76
2022/10/09 08:04:09;;;;;;;13.73;8.83;;;10.90;91.30;;;;;;5056387;28;20488;-76
2022/10/09 08:06:36;;;;;;;12.47;8.57;;;11.00;91.40;;;;;;5056049;28;20869;-76
2022/10/09 08:09:05;;;;;;;13.43;8.57;;;11.10;91.40;;;;;;5056609;28;20478;-76
2022/10/09 08:11:32;;;;;;;11.50;8.10;;;11.10;91.40;;;;;;5055873;28;20533;-76
2022/10/09 08:14:00;;;;;;;8.63;7.57;;;11.20;91.30;;;;;;5051428;28;20468;-73
2022/10/09 08:16:28;;;;;;;14.50;8.60;;;11.20;91.30;;;;;;5056162;28;20817;-75
2022/10/09 08:18:57;;;;;;;10.10;7.83;;;11.30;91.30;;;;;;5056026;28;20538;-76
2022/10/09 08:21:26;;;;;;;11.93;8.00;;;11.40;91.20;;;;;;5056172;28;20449;-76
2022/10/09 08:23:54;;;;;;;8.97;7.23;;;11.40;91.20;;;;;;5056110;28;20473;-75
2022/10/09 08:26:23;;;;;;;8.43;6.43;;;11.50;91.10;;;;;;5055897;28;20473;-76
2022/10/09 08:28:51;;;;;;;11.30;6.83;;;11.60;90.90;;;;;;5055850;28;20492;-75
2022/10/09 08:31:20;;;;;;;9.50;6.43;;;11.60;90.80;;;;;;5059178;28;20465;-74
2022/10/09 08:33:47;;;;;;;10.70;6.20;;;11.70;90.60;;;;;;5055706;28;20448;-76
2022/10/09 08:36:15;;;;;;;8.30;5.70;;;11.70;90.50;;;;;;5055768;28;20453;-76
2022/10/09 08:38:43;;;;;;;8.80;5.60;;;11.80;90.50;;;;;;5055789;28;20453;-76
2022/10/09 08:41:14;;;;;;;10.87;6.73;;;11.90;90.30;;;;;;5055337;28;20910;-76
2022/10/09 08:43:45;;;;;;;9.30;5.77;;;11.90;90.30;;;;;;5055443;28;20473;-74
2022/10/09 08:46:20;;;;;;;6.23;5.57;;;12.00;90.20;;;;;;5055483;28;20460;-76
2022/10/09 08:48:48;;;;;;;8.20;4.87;;;12.00;90.20;;;;;;5055827;28;20443;-75
2022/10/09 08:51:20;;;;;;;7.90;6.07;;;12.10;90.10;;;;;;5055321;28;20465;-75
2022/10/09 08:53:53;;;;;;;7.97;4.70;;;12.20;90.20;;;;;;5055388;28;20427;-75
2022/10/09 08:56:20;;;;;;;6.53;5.90;;;12.30;90.00;;;;;;5055624;28;20434;-74
2022/10/09 08:58:47;;;;;;;10.77;5.17;;;12.40;89.90;;;;;;5054946;28;20459;-74
2022/10/09 09:01:24;;;;;;;8.30;5.43;;;12.50;89.30;;;;;;5055261;28;20453;-75
2022/10/09 09:04:24;;;;;;;7.60;4.47;;;12.60;89.10;;;;;;5054676;28;20479;-75
2022/10/09 09:06:58;;;;;;;6.47;4.70;;;12.70;88.80;;;;;;5054894;28;20459;-75
2022/10/09 09:09:32;;;;;;;11.10;4.87;;;12.70;88.00;;;;;;5055098;28;20469;-74
2022/10/09 09:12:04;;;;;;;6.80;4.20;;;12.80;87.80;;;;;;5055186;28;20449;-76
2022/10/09 09:14:46;;;;;;;12.27;5.07;;;13.00;87.20;;;;;;5055701;28;20435;-75
2022/10/09 09:17:23;;;;;;;6.87;4.57;;;13.10;87.20;;;;;;5054678;28;20464;-75
2022/10/09 09:20:02;;;;;;;6.77;5.30;;;13.20;87.00;;;;;;5054466;28;20479;-77
2022/10/09 09:22:32;;;;;;;10.80;5.37;;;13.30;86.30;;;;;;5054514;28;20428;-75
2022/10/09 09:24:59;;;;;;;7.60;5.43;;;13.40;86.50;;;;;;5054573;28;20438;-75
2022/10/09 09:27:30;;;;;;;6.20;4.40;;;13.50;86.60;;;;;;5054758;28;20944;-77
2022/10/09 09:30:02;;;;;;;9.20;4.27;;;13.60;86.10;;;;;;5054422;28;20485;-76
2022/10/09 09:32:31;;;;;;;5.53;4.30;;;13.80;86.10;;;;;;5055670;28;20487;-76
2022/10/09 09:35:07;;;;;;;8.10;4.60;;;13.90;85.20;;;;;;5054263;28;20449;-78
2022/10/09 09:37:36;;;;;;;5.53;4.20;;;14.10;84.50;;;;;;5054487;28;20448;-77
2022/10/09 09:40:04;;;;;;;5.47;4.17;;;14.20;84.10;;;;;;5054227;28;21002;-77
2022/10/09 09:42:31;;;;;;;5.40;4.13;;;14.40;82.10;;;;;;5054419;28;20461;-78
2022/10/09 09:45:02;;;;;;;10.50;5.10;;;14.50;80.80;;;;;;5054849;28;20806;-78
2022/10/09 09:47:35;;;;;;;6.77;4.20;;;14.60;81.00;;;;;;5055427;28;20468;-77
2022/10/09 09:50:04;;;;;;;6.90;4.13;;;14.90;79.30;;;;;;5054110;28;20470;-78
2022/10/09 09:52:36;;;;;;;6.47;4.03;;;15.10;80.10;;;;;;5054948;28;20453;-78
2022/10/09 09:55:03;;;;;;;8.03;3.63;;;15.40;77.90;;;;;;5054134;28;20471;-79
2022/10/09 09:57:34;;;;;;;8.90;4.33;;;15.60;77.00;;;;;;5054677;28;20457;-78
2022/10/09 10:00:19;;;;;;;4.50;3.93;;;16.00;75.50;;;;;;5054116;28;20476;-78
2022/10/09 10:02:48;;;;;;;6.10;4.70;;;16.50;72.30;;;;;;5054945;28;20524;-78
2022/10/09 10:05:18;;;;;;;8.33;3.43;;;16.90;70.40;;;;;;5053704;28;20456;-78
2022/10/09 10:07:48;;;;;;;7.30;3.90;;;17.40;66.40;;;;;;5054430;28;20454;-78
2022/10/09 10:10:18;;;;;;;9.77;3.60;;;17.80;64.30;;;;;;5053931;28;20490;-79
2022/10/09 10:12:47;;;;;;;7.80;3.47;;;18.30;61.70;;;;;;5054122;28;20450;-79
2022/10/09 10:15:20;;;;;;;3.93;3.40;;;18.70;61.10;;;;;;5053724;28;20465;-79
2022/10/09 10:17:49;;;;;;;5.03;3.93;;;19.20;59.90;;;;;;5054678;28;20959;-74
2022/10/09 10:20:17;;;;;;;7.57;3.73;;;19.70;57.30;;;;;;5053737;28;20466;-75
2022/10/09 10:22:51;;;;;;;5.17;3.40;;;20.10;54.00;;;;;;5054372;28;20446;-76
2022/10/09 10:25:21;;;;;;;6.57;3.50;;;20.30;52.30;;;;;;5053537;28;21053;-75
2022/10/09 10:27:52;;;;;;;6.97;3.60;;;20.60;51.80;;;;;;5053732;28;20454;-76
2022/10/09 10:30:19;;;;;;;8.10;3.60;;;20.90;50.70;;;;;;5053865;28;20474;-78
2022/10/09 10:32:54;;;;;;;4.33;3.53;;;21.10;49.90;;;;;;5053561;28;20454;-79
2022/10/09 10:35:24;;;;;;;7.67;2.90;;;21.60;50.00;;;;;;5054303;28;20442;-79
2022/10/09 10:37:58;;;;;;;6.03;3.57;;;22.20;47.70;;;;;;5054471;28;20446;-77
2022/10/09 10:40:30;;;;;;;5.30;2.70;;;22.70;46.20;;;;;;5055035;28;20481;-78
2022/10/09 10:43:07;;;;;;;4.30;3.10;;;23.20;45.90;;;;;;5054247;28;20564;-79
2022/10/09 10:45:41;;;;;;;6.53;4.13;;;23.70;44.70;;;;;;5054180;28;20434;-80
2022/10/09 10:48:13;;;;;;;6.07;3.77;;;24.20;41.80;;;;;;5054173;28;20837;-79
2022/10/09 10:50:47;;;;;;;4.97;3.90;;;24.50;42.80;;;;;;5054596;28;20488;-79
2022/10/09 10:53:22;;;;;;;4.60;3.30;;;25.00;41.10;;;;;;5054349;28;20426;-79
2022/10/09 10:55:55;;;;;;;6.57;3.80;;;25.40;39.10;;;;;;5053899;28;20434;-79
2022/10/09 10:58:29;;;;;;;5.20;3.27;;;25.70;37.90;;;;;;5054031;28;20436;-80
2022/10/09 11:01:12;;;;;;;4.10;3.47;;;25.90;38.90;;;;;;5055623;28;20469;-78
2022/10/09 11:04:04;;;;;;;7.73;3.70;;;26.20;36.40;;;;;;5056187;28;20470;-78
2022/10/09 11:06:37;;;;;;;3.57;3.00;;;26.40;36.10;;;;;;5054245;28;20453;-78
2022/10/09 11:09:13;;;;;;;3.70;2.90;;;26.50;36.80;;;;;;5054442;28;20470;-78
2022/10/09 11:11:46;;;;;;;4.40;2.80;;;26.80;36.30;;;;;;5053754;28;20468;-79
2022/10/09 11:14:26;;;;;;;4.80;2.70;;;27.20;35.50;;;;;;5054477;28;20449;-78
2022/10/09 11:17:01;;;;;;;3.90;3.20;;;27.80;35.50;;;;;;5054537;28;20437;-82
2022/10/09 11:19:47;;;;;;;4.90;2.87;;;28.20;32.60;;;;;;5054744;28;20480;-81
2022/10/09 11:22:23;;;;;;;6.63;2.97;;;28.50;32.60;;;;;;5054543;28;20434;-81
2022/10/09 11:25:14;;;;;;;4.33;2.47;;;28.80;31.50;;;;;;5054992;28;20893;-81
2022/10/09 11:27:49;;;;;;;5.77;2.63;;;29.20;30.70;;;;;;5057135;28;20811;-81
2022/10/09 11:30:18;;;;;;;3.90;2.37;;;29.50;31.30;;;;;;5058262;28;20469;-79
2022/10/09 11:32:54;;;;;;;8.30;2.40;;;29.90;30.50;;;;;;5058391;28;20441;-78
2022/10/09 11:35:24;;;;;;;4.90;2.80;;;30.40;29.60;;;;;;5058889;28;20918;-81
2022/10/09 11:37:58;;;;;;;4.17;3.07;;;30.80;29.00;;;;;;5058443;28;20456;-80
2022/10/09 11:40:31;;;;;;;5.97;2.70;;;31.10;28.00;;;;;;5057745;28;20472;-80
2022/10/09 11:43:08;;;;;;;5.13;2.47;;;31.40;28.30;;;;;;5057853;28;20926;-81
2022/10/09 11:45:43;;;;;;;6.83;2.80;;;31.70;27.40;;;;;;5057785;28;20433;-80
2022/10/09 11:48:18;;;;;;;5.47;2.90;;;32.10;27.30;;;;;;5057834;28;20440;-79
2022/10/09 11:50:55;;;;;;;4.37;2.97;;;32.50;26.40;;;;;;5057695;28;20479;-80
2022/10/09 11:53:24;;;;;;;4.00;2.40;;;32.50;25.30;;;;;;5057824;28;20429;-79
2022/10/09 11:56:02;;;;;;;2.30;1.80;;;32.50;25.30;;;;;;5058511;28;20434;-80
2022/10/09 11:58:29;;;;;;;2.90;2.13;;;32.80;26.30;;;;;;5057718;28;20827;-80
2022/10/09 12:01:08;;;;;;;3.57;2.10;;;33.00;25.20;;;;;;5057886;28;20465;-81
2022/10/09 12:03:38;;;;;;;5.00;2.73;;;33.10;24.70;;;;;;5057148;28;20474;-80
2022/10/09 12:06:12;;;;;;;2.77;2.07;;;33.30;23.90;;;;;;5058111;28;20452;-77
2022/10/09 12:08:41;;;;;;;2.73;2.23;;;33.30;23.90;;;;;;5058337;28;20449;-79
2022/10/09 12:11:16;;;;;;;3.90;2.10;;;33.30;24.20;;;;;;5057922;28;20494;-79
2022/10/09 12:13:48;;;;;;;3.90;2.37;;;33.20;23.00;;;;;;5057410;28;20433;-79
2022/10/09 12:16:35;;;;;;;2.97;2.10;;;33.10;24.00;;;;;;5058074;28;20440;-78
2022/10/09 12:19:04;;;;;;;2.30;2.00;;;33.20;24.50;;;;;;5059076;28;20437;-79
2022/10/09 12:21:43;;;;;;;4.30;2.10;;;33.50;23.00;;;;;;5057341;28;20980;-78
2022/10/09 12:24:15;;;;;;;1.70;1.40;;;33.50;22.80;;;;;;5057635;28;20480;-79
2022/10/09 12:26:42;;;;;;;2.60;1.70;;;33.70;23.60;;;;;;5057345;28;20433;-79
2022/10/09 12:29:18;;;;;;;2.10;1.67;;;34.00;23.20;;;;;;5056031;28;20511;-79
2022/10/09 12:31:46;;;;;;;3.37;1.90;;;34.40;22.40;;;;;;5057160;28;20943;-79
2022/10/09 12:34:19;;;;;;;3.67;2.37;;;34.50;22.30;;;;;;5056990;28;20453;-79
2022/10/09 12:36:47;;;;;;;4.20;2.03;;;34.80;21.70;;;;;;5057919;28;20476;-81
2022/10/09 12:39:16;;;;;;;6.63;1.70;;;34.90;20.00;;;;;;5057111;28;20473;-80
2022/10/09 12:41:48;;;;;;;3.30;1.70;;;35.00;20.80;;;;;;5057260;28;20187;-80
2022/10/09 12:44:23;;;;;;;3.20;1.67;;;35.20;20.80;;;;;;5057038;28;20256;-80
2022/10/09 12:46:50;;;;;;;3.97;1.80;;;35.40;20.60;;;;;;5057683;28;20593;-80
2022/10/09 12:49:20;;;;;;;5.37;2.10;;;35.70;20.00;;;;;;5056760;28;20227;-80
2022/10/09 12:51:53;;;;;;;3.10;2.10;;;35.90;20.10;;;;;;5056984;28;20248;-80
2022/10/09 12:54:23;;;;;;;3.67;2.10;;;36.10;20.10;;;;;;5058266;28;20184;-71
2022/10/09 12:56:51;;;;;;;4.60;2.10;;;36.00;19.20;;;;;;5058139;28;20269;-80
2022/10/09 12:59:18;;;;;;;2.90;1.63;;;36.00;19.70;;;;;;5058228;28;20222;-79
2022/10/09 13:01:47;;;;;;;2.23;1.77;;;36.10;19.90;;;;;;5057812;28;20199;-79
2022/10/09 13:04:30;;;;;;;3.83;1.90;;;36.10;20.10;;;;;;5056827;28;20614;-80